createdAt,value
2018-06-01T00:00:04.123Z,19.80
2018-06-01T00:02:31.667Z,19.70
2018-06-01T00:04:59.270Z,19.70
2018-06-01T00:07:26.816Z,19.60
2018-06-01T00:09:54.383Z,19.50
2018-06-01T00:12:21.946Z,19.50
2018-06-01T00:14:49.480Z,19.40
2018-06-01T00:17:17.041Z,19.40
2018-06-01T00:19:44.597Z,19.40
2018-06-01T00:22:12.941Z,19.40
2018-06-01T00:24:40.487Z,19.30
2018-06-01T00:27:08.035Z,19.40
2018-06-01T00:29:35.618Z,19.40
2018-06-01T00:32:03.167Z,19.40
2018-06-01T00:34:30.701Z,19.40
2018-06-01T00:36:59.015Z,19.40
2018-06-01T00:39:26.566Z,19.40
2018-06-01T00:41:54.175Z,19.50
2018-06-01T00:44:21.739Z,19.50
2018-06-01T00:46:49.306Z,19.40
2018-06-01T00:49:16.850Z,19.40
2018-06-01T00:51:44.428Z,19.40
2018-06-01T00:54:11.967Z,19.40
2018-06-01T00:56:39.530Z,19.50
2018-06-01T00:59:07.076Z,19.50
2018-06-01T01:01:34.642Z,19.50
2018-06-01T01:04:02.196Z,19.50
2018-06-01T01:06:30.503Z,19.60
2018-06-01T01:08:58.120Z,19.50
2018-06-01T01:11:25.657Z,19.60
2018-06-01T01:13:53.203Z,19.60
2018-06-01T01:16:20.744Z,19.60
2018-06-01T01:18:48.281Z,19.60
2018-06-01T01:21:15.823Z,19.60
2018-06-01T01:23:43.385Z,19.40
2018-06-01T01:26:10.945Z,19.40
2018-06-01T01:28:38.495Z,19.30
2018-06-01T01:31:06.041Z,19.30
2018-06-01T01:33:33.576Z,19.20
2018-06-01T01:36:01.959Z,19.10
2018-06-01T01:38:29.504Z,19.10
2018-06-01T01:40:58.981Z,19.10
2018-06-01T01:43:26.509Z,19.00
2018-06-01T01:45:54.068Z,19.00
2018-06-01T01:48:21.624Z,19.00
2018-06-01T01:50:49.934Z,19.00
2018-06-01T01:53:17.476Z,19.00
2018-06-01T01:55:45.782Z,19.00
2018-06-01T01:58:13.347Z,19.00
2018-06-01T02:00:40.913Z,18.90
2018-06-01T02:03:08.471Z,18.90
2018-06-01T02:05:36.006Z,18.90
2018-06-01T02:08:04.334Z,18.80
2018-06-01T02:10:31.893Z,18.80
2018-06-01T02:12:59.433Z,18.80
2018-06-01T02:15:26.995Z,18.80
2018-06-01T02:17:54.566Z,18.70
2018-06-01T02:20:22.137Z,18.70
2018-06-01T02:22:49.678Z,18.70
2018-06-01T02:25:17.239Z,18.70
2018-06-01T02:27:44.792Z,18.60
2018-06-01T02:30:13.103Z,18.70
2018-06-01T02:32:40.671Z,18.70
2018-06-01T02:35:08.233Z,18.70
2018-06-01T02:37:35.788Z,18.70
2018-06-01T02:40:03.396Z,18.60
2018-06-01T02:42:30.963Z,18.60
2018-06-01T02:44:58.517Z,18.60
2018-06-01T02:47:26.066Z,18.60
2018-06-01T02:49:53.661Z,18.60
2018-06-01T02:52:21.235Z,18.60
2018-06-01T02:54:48.796Z,18.60
2018-06-01T02:57:16.343Z,18.60
2018-06-01T02:59:43.905Z,18.60
2018-06-01T03:02:11.530Z,18.60
2018-06-01T03:04:39.098Z,18.60
2018-06-01T03:07:13.709Z,18.60
2018-06-01T03:09:41.255Z,18.60
2018-06-01T03:12:08.833Z,18.60
2018-06-01T03:14:37.168Z,18.60
2018-06-01T03:17:04.710Z,18.60
2018-06-01T03:19:32.300Z,18.70
2018-06-01T03:21:59.874Z,18.70
2018-06-01T03:24:27.405Z,18.60
2018-06-01T03:26:54.977Z,18.70
2018-06-01T03:29:22.532Z,18.70
2018-06-01T03:31:50.098Z,18.70
2018-06-01T03:34:17.642Z,18.80
2018-06-01T03:36:45.183Z,18.80
2018-06-01T03:39:13.521Z,18.90
2018-06-01T03:41:41.250Z,18.90
2018-06-01T03:44:09.577Z,19.00
2018-06-01T03:46:37.142Z,19.00
2018-06-01T03:49:04.686Z,19.00
2018-06-01T03:51:32.230Z,19.10
2018-06-01T03:53:59.760Z,19.10
2018-06-01T03:56:27.313Z,19.20
2018-06-01T03:58:54.885Z,19.20
2018-06-01T04:01:22.427Z,19.10
2018-06-01T04:03:49.966Z,19.10
2018-06-01T04:06:17.493Z,19.20
2018-06-01T04:08:45.794Z,19.20
2018-06-01T04:11:13.358Z,19.20
2018-06-01T04:13:40.939Z,19.20
2018-06-01T04:16:08.487Z,19.30
2018-06-01T04:18:36.029Z,19.30
2018-06-01T04:21:04.333Z,19.50
2018-06-01T04:23:31.874Z,19.40
2018-06-01T04:26:00.206Z,19.60
2018-06-01T04:28:27.737Z,19.60
2018-06-01T04:30:56.057Z,19.80
2018-06-01T04:33:23.606Z,19.80
2018-06-01T04:35:51.156Z,19.90
2018-06-01T04:38:18.695Z,20.00
2018-06-01T04:40:46.992Z,20.20
2018-06-01T04:43:14.554Z,20.10
2018-06-01T04:45:42.108Z,20.30
2018-06-01T04:48:10.415Z,20.50
2018-06-01T04:50:37.977Z,20.40
2018-06-01T04:53:05.522Z,20.50
2018-06-01T04:55:33.854Z,20.70
2018-06-01T04:58:01.423Z,20.70
2018-06-01T05:00:28.970Z,20.80
2018-06-01T05:02:56.510Z,20.90
2018-06-01T05:05:24.055Z,21.00
2018-06-01T05:07:52.377Z,21.30
2018-06-01T05:10:19.934Z,21.20
2018-06-01T05:12:47.479Z,21.30
2018-06-01T05:15:15.017Z,21.50
2018-06-01T05:17:43.332Z,21.70
2018-06-01T05:20:10.905Z,21.70
2018-06-01T05:22:38.474Z,21.80
2018-06-01T05:25:06.038Z,22.00
2018-06-01T05:27:33.600Z,22.20
2018-06-01T05:30:01.170Z,22.50
2018-06-01T05:32:28.724Z,22.70
2018-06-01T05:34:56.274Z,22.90
2018-06-01T05:37:23.842Z,23.00
2018-06-01T05:39:51.394Z,23.10
2018-06-01T05:42:18.967Z,23.30
2018-06-01T05:44:46.542Z,23.40
2018-06-01T05:47:14.121Z,23.60
2018-06-01T05:49:41.670Z,23.70
2018-06-01T05:52:09.224Z,23.80
2018-06-01T05:54:36.770Z,23.90
2018-06-01T05:57:05.106Z,24.20
2018-06-01T05:59:32.670Z,24.20
2018-06-01T06:02:00.219Z,24.30
2018-06-01T06:04:27.793Z,24.40
2018-06-01T06:06:55.351Z,24.50
2018-06-01T06:09:22.918Z,24.60
2018-06-01T06:11:50.482Z,24.70
2018-06-01T06:14:18.023Z,24.70
2018-06-01T06:16:45.601Z,24.80
2018-06-01T06:19:13.167Z,24.90
2018-06-01T06:21:40.735Z,25.00
2018-06-01T06:24:08.330Z,25.10
2018-06-01T06:26:35.876Z,25.20
2018-06-01T06:29:03.442Z,25.40
2018-06-01T06:31:31.021Z,25.50
2018-06-01T06:33:58.531Z,25.60
2018-06-01T06:36:26.075Z,25.60
2018-06-01T06:38:54.401Z,25.90
2018-06-01T06:41:21.970Z,25.90
2018-06-01T06:43:49.550Z,26.00
2018-06-01T06:46:17.115Z,26.20
2018-06-01T06:48:44.668Z,26.20
2018-06-01T06:51:12.201Z,26.20
2018-06-01T06:53:39.757Z,26.40
2018-06-01T06:56:07.315Z,26.40
2018-06-01T06:58:35.641Z,26.60
2018-06-01T07:01:03.193Z,26.50
2018-06-01T07:03:30.762Z,26.60
2018-06-01T07:05:58.334Z,26.60
2018-06-01T07:08:25.882Z,26.70
2018-06-01T07:10:53.421Z,26.70
2018-06-01T07:13:20.990Z,26.70
2018-06-01T07:15:48.545Z,26.80
2018-06-01T07:18:16.863Z,26.90
2018-06-01T07:20:44.432Z,26.90
2018-06-01T07:23:11.993Z,27.00
2018-06-01T07:25:39.546Z,27.10
2018-06-01T07:28:07.104Z,27.20
2018-06-01T07:30:34.677Z,27.30
2018-06-01T07:33:02.241Z,27.30
2018-06-01T07:35:29.786Z,27.50
2018-06-01T07:37:57.325Z,27.60
2018-06-01T07:40:25.659Z,27.70
2018-06-01T07:42:53.214Z,27.70
2018-06-01T07:45:20.755Z,27.70
2018-06-01T07:47:48.314Z,27.80
2018-06-01T07:50:16.633Z,28.00
2018-06-01T07:52:44.198Z,28.00
2018-06-01T07:55:11.747Z,28.10
2018-06-01T07:57:39.294Z,28.10
2018-06-01T08:00:06.883Z,28.30
2018-06-01T08:02:34.413Z,28.40
2018-06-01T08:05:01.976Z,28.40
2018-06-01T08:07:30.287Z,28.60
2018-06-01T08:09:57.846Z,28.50
2018-06-01T08:12:25.417Z,28.60
2018-06-01T08:14:52.958Z,28.60
2018-06-01T08:17:20.517Z,28.60
2018-06-01T08:19:48.875Z,28.80
2018-06-01T08:22:16.416Z,28.70
2018-06-01T08:24:43.974Z,28.90
2018-06-01T08:27:11.507Z,29.10
2018-06-01T08:29:39.032Z,29.10
2018-06-01T08:32:06.585Z,29.20
2018-06-01T08:34:34.171Z,29.10
2018-06-01T08:37:01.730Z,29.00
2018-06-01T08:39:29.342Z,29.00
2018-06-01T08:41:57.625Z,28.90
2018-06-01T08:44:25.199Z,28.90
2018-06-01T08:46:52.729Z,29.00
2018-06-01T08:49:20.266Z,29.10
2018-06-01T08:51:47.800Z,29.20
2018-06-01T08:54:15.362Z,28.90
2018-06-01T08:56:42.904Z,29.00
2018-06-01T08:59:10.452Z,29.10
2018-06-01T09:01:38.009Z,29.30
2018-06-01T09:04:06.319Z,29.40
2018-06-01T09:06:33.869Z,29.40
2018-06-01T09:09:01.478Z,29.60
2018-06-01T09:11:29.033Z,29.60
2018-06-01T09:13:56.575Z,29.50
2018-06-01T09:16:24.115Z,29.50
2018-06-01T09:18:51.669Z,29.30
2018-06-01T09:21:20.039Z,29.50
2018-06-01T09:23:48.351Z,29.60
2018-06-01T09:26:16.311Z,29.50
2018-06-01T09:28:44.615Z,29.90
2018-06-01T09:31:12.169Z,29.90
2018-06-01T09:33:39.726Z,30.30
2018-06-01T09:36:07.298Z,30.60
2018-06-01T09:38:34.847Z,30.60
2018-06-01T09:41:02.415Z,30.30
2018-06-01T09:43:29.953Z,29.90
2018-06-01T09:45:57.485Z,29.60
2018-06-01T09:48:25.013Z,29.40
2018-06-01T09:50:52.555Z,29.50
2018-06-01T09:53:20.883Z,29.20
2018-06-01T09:55:48.434Z,29.20
2018-06-01T09:58:16.015Z,29.30
2018-06-01T10:00:49.169Z,29.60
2018-06-01T10:03:16.728Z,30.00
2018-06-01T10:05:45.036Z,30.30
2018-06-01T10:08:12.599Z,30.30
2018-06-01T10:10:40.150Z,30.60
2018-06-01T10:13:07.723Z,30.60
2018-06-01T10:15:35.281Z,30.60
2018-06-01T10:18:02.846Z,30.50
2018-06-01T10:20:37.207Z,30.10
2018-06-01T10:23:04.747Z,30.20
2018-06-01T10:25:32.295Z,30.60
2018-06-01T10:27:59.845Z,30.90
2018-06-01T10:30:27.409Z,31.00
2018-06-01T10:32:54.986Z,31.10
2018-06-01T10:35:23.266Z,31.20
2018-06-01T10:37:50.806Z,31.20
2018-06-01T10:40:19.139Z,31.30
2018-06-01T10:42:46.705Z,31.30
2018-06-01T10:45:14.284Z,31.50
2018-06-01T10:47:41.925Z,31.60
2018-06-01T10:50:09.474Z,31.20
2018-06-01T10:52:37.023Z,30.70
2018-06-01T10:55:05.326Z,30.60
2018-06-01T10:57:32.861Z,30.60
2018-06-01T11:00:01.197Z,30.90
2018-06-01T11:02:29.757Z,30.90
2018-06-01T11:04:57.339Z,31.20
2018-06-01T11:07:24.890Z,31.70
2018-06-01T11:09:52.446Z,31.80
2018-06-01T11:12:19.995Z,32.10
2018-06-01T11:14:47.595Z,31.90
2018-06-01T11:17:15.175Z,31.90
2018-06-01T11:19:42.747Z,32.00
2018-06-01T11:22:10.314Z,32.10
2018-06-01T11:24:37.873Z,32.20
2018-06-01T11:27:05.535Z,32.30
2018-06-01T11:29:33.019Z,32.50
2018-06-01T11:32:00.576Z,32.30
2018-06-01T11:34:28.124Z,31.70
2018-06-01T11:36:55.677Z,31.50
2018-06-01T11:39:23.239Z,31.30
2018-06-01T11:41:50.822Z,31.30
2018-06-01T11:44:18.448Z,31.30
2018-06-01T11:46:45.991Z,31.40
2018-06-01T11:49:14.360Z,31.00
2018-06-01T11:51:43.403Z,30.70
2018-06-01T11:54:10.948Z,30.70
2018-06-01T11:56:38.515Z,30.90
2018-06-01T11:59:06.075Z,30.90
2018-06-01T12:01:33.673Z,30.80
2018-06-01T12:04:01.215Z,30.90
2018-06-01T12:06:28.769Z,30.70
2018-06-01T12:08:56.312Z,30.60
2018-06-01T12:11:24.613Z,30.60
2018-06-01T12:13:52.181Z,30.50
2018-06-01T12:16:19.747Z,30.50
2018-06-01T12:18:47.299Z,30.40
2018-06-01T12:21:14.848Z,30.10
2018-06-01T12:23:43.165Z,29.70
2018-06-01T12:26:10.711Z,29.70
2018-06-01T12:28:39.050Z,29.20
2018-06-01T12:31:06.601Z,29.20
2018-06-01T12:33:34.133Z,29.10
2018-06-01T12:36:01.664Z,29.00
2018-06-01T12:38:29.203Z,28.80
2018-06-01T12:40:56.749Z,28.60
2018-06-01T12:43:24.347Z,28.30
2018-06-01T12:45:51.920Z,27.90
2018-06-01T12:48:19.497Z,27.80
2018-06-01T12:50:47.851Z,27.60
2018-06-01T12:53:15.395Z,27.60
2018-06-01T12:55:42.930Z,27.40
2018-06-01T12:58:10.534Z,27.00
2018-06-01T13:00:40.802Z,25.60
2018-06-01T13:03:08.350Z,25.70
2018-06-01T13:05:36.673Z,24.90
2018-06-01T13:08:04.261Z,24.80
2018-06-01T13:10:31.827Z,24.60
2018-06-01T13:12:59.367Z,24.30
2018-06-01T13:15:26.934Z,23.90
2018-06-01T13:17:54.464Z,23.70
2018-06-01T13:20:22.775Z,22.60
2018-06-01T13:22:50.325Z,22.60
2018-06-01T13:25:17.884Z,22.40
2018-06-01T13:27:45.439Z,22.10
2018-06-01T13:30:13.795Z,21.70
2018-06-01T13:32:41.343Z,21.70
2018-06-01T13:35:08.889Z,21.60
2018-06-01T13:37:36.438Z,21.50
2018-06-01T13:40:03.973Z,21.50
2018-06-01T13:42:32.290Z,21.20
2018-06-01T13:44:59.839Z,21.10
2018-06-01T13:47:27.396Z,21.00
2018-06-01T13:49:54.970Z,21.00
2018-06-01T13:52:22.518Z,20.90
2018-06-01T13:54:50.057Z,21.00
2018-06-01T13:57:17.590Z,20.90
2018-06-01T13:59:45.139Z,20.60
2018-06-01T14:02:12.684Z,20.60
2018-06-01T14:04:40.217Z,20.60
2018-06-01T14:07:08.548Z,20.50
2018-06-01T14:09:36.107Z,20.50
2018-06-01T14:12:03.655Z,20.40
2018-06-01T14:14:31.231Z,20.30
2018-06-01T14:16:58.807Z,20.20
2018-06-01T14:19:26.380Z,20.10
2018-06-01T14:21:53.972Z,20.00
2018-06-01T14:24:21.514Z,20.00
2018-06-01T14:26:49.083Z,20.00
2018-06-01T14:29:16.620Z,20.00
2018-06-01T14:31:44.199Z,20.00
2018-06-01T14:34:11.772Z,20.00
2018-06-01T14:36:39.324Z,20.10
2018-06-01T14:39:06.874Z,20.10
2018-06-01T14:41:34.422Z,20.10
2018-06-01T14:44:01.966Z,20.10
2018-06-01T14:46:30.297Z,20.20
2018-06-01T14:48:57.849Z,20.20
2018-06-01T14:51:25.432Z,20.20
2018-06-01T14:53:53.047Z,20.20
2018-06-01T14:56:21.392Z,20.10
2018-06-01T14:58:48.967Z,20.10
2018-06-01T15:01:16.532Z,20.10
2018-06-01T15:03:44.083Z,20.10
2018-06-01T15:06:11.645Z,20.10
2018-06-01T15:08:39.212Z,20.10
2018-06-01T15:11:06.791Z,20.20
2018-06-01T15:13:34.383Z,20.20
2018-06-01T15:16:02.695Z,20.20
2018-06-01T15:18:30.246Z,20.20
2018-06-01T15:20:57.790Z,20.30
2018-06-01T15:23:26.093Z,20.30
2018-06-01T15:25:53.637Z,20.20
2018-06-01T15:28:21.953Z,20.30
2018-06-01T15:30:49.924Z,20.20
2018-06-01T15:33:17.519Z,20.30
2018-06-01T15:35:45.122Z,20.30
2018-06-01T15:38:13.440Z,20.40
2018-06-01T15:40:41.032Z,20.40
2018-06-01T15:43:08.609Z,20.40
2018-06-01T15:45:36.202Z,20.40
2018-06-01T15:48:04.544Z,20.20
2018-06-01T15:50:32.099Z,20.20
2018-06-01T15:52:59.653Z,20.20
2018-06-01T15:55:27.200Z,20.20
2018-06-01T15:57:54.869Z,20.20
2018-06-01T16:00:22.421Z,20.10
2018-06-01T16:02:49.957Z,20.10
2018-06-01T16:05:18.282Z,19.90
2018-06-01T16:07:45.825Z,19.90
2018-06-01T16:10:13.423Z,19.90
2018-06-01T16:12:41.046Z,19.90
2018-06-01T16:15:08.541Z,19.80
2018-06-01T16:17:36.735Z,19.80
2018-06-01T16:20:04.298Z,19.80
2018-06-01T16:22:32.454Z,19.70
2018-06-01T16:25:00.007Z,19.70
2018-06-01T16:27:27.572Z,19.70
2018-06-01T16:29:55.204Z,19.70
2018-06-01T16:32:24.437Z,19.70
2018-06-01T16:34:52.004Z,19.70
2018-06-01T16:37:19.549Z,19.70
2018-06-01T16:39:47.891Z,19.70
2018-06-01T16:42:15.459Z,19.60
2018-06-01T16:44:43.042Z,19.60
2018-06-01T16:47:10.590Z,19.70
2018-06-01T16:49:38.135Z,19.70
2018-06-01T16:52:05.693Z,19.70
2018-06-01T16:54:33.263Z,19.70
2018-06-01T16:57:00.819Z,19.80
2018-06-01T16:59:29.169Z,19.80
2018-06-01T17:01:56.759Z,19.80
2018-06-01T17:04:24.301Z,19.90
2018-06-01T17:06:51.891Z,19.90
2018-06-01T17:09:19.463Z,19.80
2018-06-01T17:11:47.042Z,19.80
2018-06-01T17:14:14.631Z,19.80
2018-06-01T17:16:43.099Z,19.70
2018-06-01T17:19:10.651Z,19.70
2018-06-01T17:21:38.217Z,19.60
2018-06-01T17:24:05.762Z,19.60
2018-06-01T17:26:33.342Z,19.50
2018-06-01T17:29:00.909Z,19.50
2018-06-01T17:31:28.530Z,19.40
2018-06-01T17:33:56.191Z,19.40
2018-06-01T17:36:24.503Z,19.30
2018-06-01T17:38:52.077Z,19.20
2018-06-01T17:41:19.637Z,19.20
2018-06-01T17:43:47.231Z,19.10
2018-06-01T17:46:14.805Z,19.10
2018-06-01T17:48:42.350Z,19.10
2018-06-01T17:51:09.919Z,19.00
2018-06-01T17:53:37.511Z,19.00
2018-06-01T17:56:05.819Z,19.00
2018-06-01T17:58:33.449Z,19.00
2018-06-01T18:01:01.000Z,19.00
2018-06-01T18:03:28.575Z,19.00
2018-06-01T18:05:56.150Z,19.00
2018-06-01T18:08:24.457Z,19.10
2018-06-01T18:10:52.023Z,19.10
2018-06-01T18:13:19.642Z,19.20
2018-06-01T18:15:47.216Z,19.20
2018-06-01T18:18:14.763Z,19.30
2018-06-01T18:20:42.306Z,19.20
2018-06-01T18:23:09.875Z,19.20
2018-06-01T18:25:37.428Z,19.20
2018-06-01T18:28:04.998Z,19.10
2018-06-01T18:30:32.551Z,19.10
2018-06-01T18:33:00.142Z,19.10
2018-06-01T18:35:27.723Z,19.00
2018-06-01T18:37:55.268Z,19.10
2018-06-01T18:40:22.853Z,19.20
2018-06-01T18:42:50.494Z,19.20
2018-06-01T18:45:18.042Z,19.20
2018-06-01T18:47:45.616Z,19.20
2018-06-01T18:50:13.200Z,19.20
2018-06-01T18:52:40.809Z,19.10
2018-06-01T18:55:08.383Z,19.10
2018-06-01T18:57:35.958Z,19.10
2018-06-01T19:00:03.529Z,19.10
2018-06-01T19:02:31.091Z,19.00
2018-06-01T19:04:58.667Z,19.00
2018-06-01T19:07:26.215Z,19.00
2018-06-01T19:09:53.783Z,18.90
2018-06-01T19:12:21.318Z,18.90
2018-06-01T19:14:49.618Z,18.90
2018-06-01T19:17:17.182Z,18.90
2018-06-01T19:19:44.717Z,18.90
2018-06-01T19:22:13.021Z,18.90
2018-06-01T19:24:40.571Z,18.90
2018-06-01T19:27:08.902Z,18.80
2018-06-01T19:29:36.442Z,18.80
2018-06-01T19:32:03.988Z,18.80
2018-06-01T19:34:31.634Z,18.80
2018-06-01T19:36:59.183Z,18.80
2018-06-01T19:39:26.746Z,18.80
2018-06-01T19:41:54.324Z,18.90
2018-06-01T19:44:21.915Z,18.90
2018-06-01T19:46:50.319Z,18.90
2018-06-01T19:49:17.869Z,18.90
2018-06-01T19:51:45.429Z,18.90
2018-06-01T19:54:12.970Z,18.90
2018-06-01T19:56:41.287Z,18.90
2018-06-01T19:59:08.854Z,18.90
2018-06-01T20:01:36.407Z,18.90
2018-06-01T20:04:03.983Z,18.80
2018-06-01T20:06:31.554Z,18.70
2018-06-01T20:08:59.110Z,18.70
2018-06-01T20:11:26.677Z,18.70
2018-06-01T20:13:54.227Z,18.70
2018-06-01T20:16:21.790Z,18.70
2018-06-01T20:18:49.362Z,18.70
2018-06-01T20:21:16.954Z,18.70
2018-06-01T20:23:44.519Z,18.60
2018-06-01T20:26:12.081Z,18.60
2018-06-01T20:28:39.628Z,18.60
2018-06-01T20:31:07.170Z,18.50
2018-06-01T20:33:34.726Z,18.40
2018-06-01T20:36:02.303Z,18.40
2018-06-01T20:38:29.905Z,18.40
2018-06-01T20:40:57.459Z,18.40
2018-06-01T20:43:24.993Z,18.30
2018-06-01T20:45:52.531Z,18.30
2018-06-01T20:48:20.113Z,18.30
2018-06-01T20:50:47.737Z,18.30
2018-06-01T20:53:15.326Z,18.20
2018-06-01T20:55:43.706Z,18.20
2018-06-01T20:58:11.264Z,18.20
2018-06-01T21:00:38.806Z,18.20
2018-06-01T21:03:06.341Z,18.10
2018-06-01T21:05:33.902Z,18.20
2018-06-01T21:08:01.444Z,18.20
2018-06-01T21:10:29.749Z,18.20
2018-06-01T21:12:57.315Z,18.20
2018-06-01T21:15:24.859Z,18.20
2018-06-01T21:17:52.409Z,18.20
2018-06-01T21:20:20.758Z,18.20
2018-06-01T21:22:48.310Z,18.20
2018-06-01T21:25:15.862Z,18.10
2018-06-01T21:27:43.422Z,18.10
2018-06-01T21:30:10.967Z,18.10
2018-06-01T21:32:38.516Z,18.10
2018-06-01T21:35:06.831Z,18.10
2018-06-01T21:37:34.361Z,18.10
2018-06-01T21:40:02.670Z,18.10
2018-06-01T21:42:30.239Z,18.10
2018-06-01T21:44:57.806Z,18.10
2018-06-01T21:47:25.383Z,18.00
2018-06-01T21:49:52.930Z,18.00
2018-06-01T21:52:20.564Z,18.10
2018-06-01T21:54:48.176Z,18.10
2018-06-01T21:57:15.738Z,18.10
2018-06-01T21:59:43.287Z,18.20
2018-06-01T22:02:10.825Z,18.20
2018-06-01T22:04:39.174Z,18.20
2018-06-01T22:07:06.724Z,18.10
2018-06-01T22:09:34.295Z,18.20
2018-06-01T22:12:01.867Z,18.20
2018-06-01T22:14:29.431Z,18.20
2018-06-01T22:16:57.002Z,18.20
2018-06-01T22:19:24.575Z,18.20
2018-06-01T22:21:52.136Z,18.10
2018-06-01T22:24:19.686Z,18.10
2018-06-01T22:26:47.239Z,18.00
2018-06-01T22:29:14.782Z,18.00
2018-06-01T22:31:42.350Z,18.00
2018-06-01T22:34:09.888Z,18.00
2018-06-01T22:36:37.421Z,18.00
2018-06-01T22:39:05.725Z,18.10
2018-06-01T22:41:33.280Z,18.10
2018-06-01T22:44:01.594Z,18.10
2018-06-01T22:46:29.162Z,18.10
2018-06-01T22:48:56.706Z,18.20
2018-06-01T22:51:24.247Z,18.20
2018-06-01T22:53:51.837Z,18.20
2018-06-01T22:56:19.412Z,18.20
2018-06-01T22:58:46.982Z,18.10
2018-06-01T23:01:14.551Z,18.10
2018-06-01T23:03:42.103Z,18.10
2018-06-01T23:06:09.675Z,18.10
2018-06-01T23:08:37.223Z,18.10
2018-06-01T23:11:04.793Z,18.10
2018-06-01T23:13:32.329Z,18.10
2018-06-01T23:16:00.679Z,18.00
2018-06-01T23:18:28.223Z,18.00
2018-06-01T23:20:55.780Z,18.00
2018-06-01T23:23:23.355Z,18.00
2018-06-01T23:25:50.906Z,18.00
2018-06-01T23:28:18.476Z,18.00
2018-06-01T23:30:46.090Z,18.00
2018-06-01T23:33:13.653Z,18.00
2018-06-01T23:35:41.990Z,18.00
2018-06-01T23:38:09.563Z,18.00
2018-06-01T23:40:37.097Z,18.00
2018-06-01T23:43:04.637Z,18.00
2018-06-01T23:45:33.011Z,18.00
2018-06-01T23:48:01.327Z,18.00
2018-06-01T23:50:28.919Z,18.00
2018-06-01T23:52:56.487Z,18.00
2018-06-01T23:55:24.044Z,18.00
2018-06-01T23:57:51.592Z,17.90
